sensor_id;sensor_type;location;lat;lon;timestamp;P1;durP1;ratioP1;P2;durP2;ratioP2
59314;SDS011;46521;50.160;20.802;2023-06-10T00:15:44;18.80;;;16.80;;
59314;SDS011;46521;50.160;20.802;2023-06-10T00:25:45;20.50;;;16.70;;
59314;SDS011;46521;50.160;20.802;2023-06-10T00:35:47;19.98;;;16.88;;
59314;SDS011;46521;50.160;20.802;2023-06-10T00:45:49;18.85;;;16.55;;
59314;SDS011;46521;50.160;20.802;2023-06-10T00:55:52;20.13;;;16.58;;
59314;SDS011;46521;50.160;20.802;2023-06-10T01:05:57;19.00;;;15.50;;
59314;SDS011;46521;50.160;20.802;2023-06-10T01:16:36;18.90;;;15.70;;
59314;SDS011;46521;50.160;20.802;2023-06-10T01:26:38;18.07;;;15.30;;
59314;SDS011;46521;50.160;20.802;2023-06-10T01:36:43;15.90;;;14.05;;
59314;SDS011;46521;50.160;20.802;2023-06-10T01:46:48;14.88;;;13.05;;
59314;SDS011;46521;50.160;20.802;2023-06-10T01:56:50;16.53;;;13.15;;
59314;SDS011;46521;50.160;20.802;2023-06-10T02:06:51;16.90;;;12.30;;
59314;SDS011;46521;50.160;20.802;2023-06-10T02:16:54;16.08;;;14.08;;
59314;SDS011;46521;50.160;20.802;2023-06-10T02:26:57;15.75;;;12.88;;
59314;SDS011;46521;50.160;20.802;2023-06-10T02:37:01;17.50;;;13.60;;
59314;SDS011;46521;50.160;20.802;2023-06-10T02:47:03;15.13;;;13.53;;
59314;SDS011;46521;50.160;20.802;2023-06-10T02:57:05;17.05;;;14.20;;
59314;SDS011;46521;50.160;20.802;2023-06-10T03:07:07;18.87;;;14.77;;
59314;SDS011;46521;50.160;20.802;2023-06-10T03:17:09;18.35;;;14.45;;
59314;SDS011;46521;50.160;20.802;2023-06-10T03:27:10;16.98;;;14.78;;
59314;SDS011;46521;50.160;20.802;2023-06-10T03:37:12;16.93;;;15.13;;
59314;SDS011;46521;50.160;20.802;2023-06-10T03:47:13;17.48;;;14.48;;
59314;SDS011;46521;50.160;20.802;2023-06-10T03:57:15;16.00;;;13.53;;
59314;SDS011;46521;50.160;20.802;2023-06-10T04:07:17;16.70;;;13.10;;
59314;SDS011;46521;50.160;20.802;2023-06-10T04:17:21;14.80;;;11.60;;
59314;SDS011;46521;50.160;20.802;2023-06-10T04:27:22;14.90;;;11.23;;
59314;SDS011;46521;50.160;20.802;2023-06-10T04:37:24;12.75;;;10.85;;
59314;SDS011;46521;50.160;20.802;2023-06-10T04:47:26;11.63;;;9.40;;
59314;SDS011;46521;50.160;20.802;2023-06-10T04:57:27;11.65;;;9.43;;
59314;SDS011;46521;50.160;20.802;2023-06-10T05:07:29;12.20;;;8.68;;
59314;SDS011;46521;50.160;20.802;2023-06-10T05:17:30;11.10;;;8.60;;
59314;SDS011;46521;50.160;20.802;2023-06-10T05:27:32;11.98;;;8.63;;
59314;SDS011;46521;50.160;20.802;2023-06-10T05:37:33;11.13;;;8.80;;
59314;SDS011;46521;50.160;20.802;2023-06-10T05:47:37;11.20;;;8.30;;
59314;SDS011;46521;50.160;20.802;2023-06-10T05:57:41;12.27;;;8.07;;
59314;SDS011;46521;50.160;20.802;2023-06-10T06:07:43;9.80;;;8.50;;
59314;SDS011;46521;50.160;20.802;2023-06-10T06:17:45;11.45;;;7.95;;
59314;SDS011;46521;50.160;20.802;2023-06-10T06:27:46;10.90;;;7.75;;
59314;SDS011;46521;50.160;20.802;2023-06-10T06:37:48;10.30;;;8.00;;
59314;SDS011;46521;50.160;20.802;2023-06-10T06:47:49;10.40;;;7.20;;
59314;SDS011;46521;50.160;20.802;2023-06-10T06:57:52;11.75;;;7.00;;
59314;SDS011;46521;50.160;20.802;2023-06-10T07:07:53;9.28;;;6.70;;
59314;SDS011;46521;50.160;20.802;2023-06-10T07:17:56;10.00;;;6.80;;
59314;SDS011;46521;50.160;20.802;2023-06-10T07:27:58;9.60;;;6.80;;
59314;SDS011;46521;50.160;20.802;2023-06-10T07:37:59;10.87;;;7.50;;
59314;SDS011;46521;50.160;20.802;2023-06-10T07:48:01;9.30;;;6.95;;
59314;SDS011;46521;50.160;20.802;2023-06-10T07:58:02;10.75;;;6.70;;
59314;SDS011;46521;50.160;20.802;2023-06-10T08:08:04;10.57;;;7.57;;
59314;SDS011;46521;50.160;20.802;2023-06-10T08:18:05;9.38;;;7.13;;
59314;SDS011;46521;50.160;20.802;2023-06-10T08:28:07;9.50;;;7.10;;
59314;SDS011;46521;50.160;20.802;2023-06-10T08:38:09;9.68;;;7.55;;
59314;SDS011;46521;50.160;20.802;2023-06-10T08:48:10;9.78;;;7.85;;
59314;SDS011;46521;50.160;20.802;2023-06-10T08:58:13;10.38;;;7.35;;
59314;SDS011;46521;50.160;20.802;2023-06-10T09:08:15;10.80;;;7.70;;
59314;SDS011;46521;50.160;20.802;2023-06-10T09:18:17;9.68;;;7.70;;
59314;SDS011;46521;50.160;20.802;2023-06-10T09:28:18;8.90;;;7.10;;
59314;SDS011;46521;50.160;20.802;2023-06-10T09:38:29;10.13;;;7.47;;
59314;SDS011;46521;50.160;20.802;2023-06-10T09:48:35;9.60;;;7.30;;
59314;SDS011;46521;50.160;20.802;2023-06-10T09:58:42;9.10;;;7.15;;
59314;SDS011;46521;50.160;20.802;2023-06-10T10:08:50;8.67;;;6.10;;
59314;SDS011;46521;50.160;20.802;2023-06-10T10:18:53;8.57;;;5.10;;
59314;SDS011;46521;50.160;20.802;2023-06-10T10:39:23;8.45;;;6.25;;
59314;SDS011;46521;50.160;20.802;2023-06-10T10:49:29;8.27;;;5.73;;
59314;SDS011;46521;50.160;20.802;2023-06-10T10:59:44;8.30;;;5.30;;
59314;SDS011;46521;50.160;20.802;2023-06-10T11:20:45;10.07;;;7.03;;
59314;SDS011;46521;50.160;20.802;2023-06-10T11:30:59;7.60;;;5.33;;
59314;SDS011;46521;50.160;20.802;2023-06-10T11:41:02;9.50;;;6.45;;
59314;SDS011;46521;50.160;20.802;2023-06-10T11:51:11;7.47;;;5.57;;
59314;SDS011;46521;50.160;20.802;2023-06-10T12:01:18;8.27;;;5.30;;
59314;SDS011;46521;50.160;20.802;2023-06-10T12:11:22;7.00;;;4.90;;
59314;SDS011;46521;50.160;20.802;2023-06-10T12:21:24;7.43;;;5.67;;
59314;SDS011;46521;50.160;20.802;2023-06-10T12:31:25;7.57;;;4.80;;
59314;SDS011;46521;50.160;20.802;2023-06-10T12:41:28;8.47;;;4.70;;
59314;SDS011;46521;50.160;20.802;2023-06-10T12:51:32;7.30;;;4.70;;
59314;SDS011;46521;50.160;20.802;2023-06-10T13:01:55;7.15;;;4.75;;
59314;SDS011;46521;50.160;20.802;2023-06-10T13:11:56;7.45;;;4.30;;
59314;SDS011;46521;50.160;20.802;2023-06-10T13:22:00;6.37;;;4.33;;
59314;SDS011;46521;50.160;20.802;2023-06-10T13:32:03;8.47;;;5.70;;
59314;SDS011;46521;50.160;20.802;2023-06-10T13:42:11;7.10;;;4.95;;
59314;SDS011;46521;50.160;20.802;2023-06-10T13:52:13;6.77;;;4.33;;
59314;SDS011;46521;50.160;20.802;2023-06-10T14:02:15;8.08;;;5.45;;
59314;SDS011;46521;50.160;20.802;2023-06-10T14:12:17;8.00;;;5.30;;
59314;SDS011;46521;50.160;20.802;2023-06-10T14:22:19;7.53;;;5.17;;
59314;SDS011;46521;50.160;20.802;2023-06-10T14:32:20;7.97;;;4.53;;
59314;SDS011;46521;50.160;20.802;2023-06-10T14:42:22;8.00;;;4.85;;
59314;SDS011;46521;50.160;20.802;2023-06-10T14:52:24;6.87;;;4.20;;
59314;SDS011;46521;50.160;20.802;2023-06-10T15:02:25;8.33;;;4.57;;
59314;SDS011;46521;50.160;20.802;2023-06-10T15:12:27;6.93;;;4.30;;
59314;SDS011;46521;50.160;20.802;2023-06-10T15:22:29;7.27;;;4.73;;
59314;SDS011;46521;50.160;20.802;2023-06-10T15:32:33;8.17;;;5.03;;
59314;SDS011;46521;50.160;20.802;2023-06-10T15:42:35;8.50;;;4.63;;
59314;SDS011;46521;50.160;20.802;2023-06-10T15:52:37;7.53;;;4.63;;
59314;SDS011;46521;50.160;20.802;2023-06-10T16:02:39;7.13;;;4.60;;
59314;SDS011;46521;50.160;20.802;2023-06-10T16:12:40;7.90;;;4.40;;
59314;SDS011;46521;50.160;20.802;2023-06-10T16:22:41;8.25;;;5.30;;
59314;SDS011;46521;50.160;20.802;2023-06-10T16:32:43;8.20;;;4.90;;
59314;SDS011;46521;50.160;20.802;2023-06-10T16:42:45;8.63;;;5.03;;
59314;SDS011;46521;50.160;20.802;2023-06-10T16:52:46;8.98;;;4.95;;
59314;SDS011;46521;50.160;20.802;2023-06-10T17:02:47;9.15;;;5.15;;
59314;SDS011;46521;50.160;20.802;2023-06-10T17:12:49;8.68;;;4.83;;
59314;SDS011;46521;50.160;20.802;2023-06-10T17:22:51;8.15;;;5.00;;
59314;SDS011;46521;50.160;20.802;2023-06-10T17:32:52;7.03;;;3.95;;
59314;SDS011;46521;50.160;20.802;2023-06-10T17:42:54;7.75;;;4.70;;
59314;SDS011;46521;50.160;20.802;2023-06-10T17:52:55;7.98;;;5.30;;
59314;SDS011;46521;50.160;20.802;2023-06-10T18:02:57;9.35;;;5.50;;
59314;SDS011;46521;50.160;20.802;2023-06-10T18:12:58;8.08;;;5.60;;
59314;SDS011;46521;50.160;20.802;2023-06-10T18:23:01;10.10;;;6.60;;
59314;SDS011;46521;50.160;20.802;2023-06-10T18:33:03;9.98;;;6.73;;
59314;SDS011;46521;50.160;20.802;2023-06-10T18:43:04;9.03;;;6.27;;
59314;SDS011;46521;50.160;20.802;2023-06-10T18:53:06;11.98;;;7.45;;
59314;SDS011;46521;50.160;20.802;2023-06-10T19:03:09;9.00;;;6.90;;
59314;SDS011;46521;50.160;20.802;2023-06-10T19:13:10;8.80;;;7.00;;
59314;SDS011;46521;50.160;20.802;2023-06-10T19:23:12;9.75;;;7.10;;
59314;SDS011;46521;50.160;20.802;2023-06-10T19:33:13;8.98;;;6.80;;
59314;SDS011;46521;50.160;20.802;2023-06-10T19:43:15;9.95;;;6.50;;
59314;SDS011;46521;50.160;20.802;2023-06-10T19:53:16;11.58;;;7.20;;
59314;SDS011;46521;50.160;20.802;2023-06-10T20:03:18;10.80;;;6.90;;
59314;SDS011;46521;50.160;20.802;2023-06-10T20:13:22;10.10;;;7.00;;
59314;SDS011;46521;50.160;20.802;2023-06-10T20:23:24;10.35;;;7.30;;
59314;SDS011;46521;50.160;20.802;2023-06-10T20:33:25;9.87;;;7.03;;
59314;SDS011;46521;50.160;20.802;2023-06-10T20:43:27;9.38;;;6.80;;
59314;SDS011;46521;50.160;20.802;2023-06-10T20:53:28;10.53;;;7.40;;
59314;SDS011;46521;50.160;20.802;2023-06-10T21:03:30;10.50;;;7.15;;
59314;SDS011;46521;50.160;20.802;2023-06-10T21:13:31;10.33;;;7.23;;
59314;SDS011;46521;50.160;20.802;2023-06-10T21:23:33;11.10;;;7.70;;
59314;SDS011;46521;50.160;20.802;2023-06-10T21:33:34;10.00;;;7.03;;
59314;SDS011;46521;50.160;20.802;2023-06-10T21:43:36;10.93;;;7.85;;
59314;SDS011;46521;50.160;20.802;2023-06-10T21:53:38;10.10;;;7.10;;
59314;SDS011;46521;50.160;20.802;2023-06-10T22:03:39;10.35;;;7.50;;
59314;SDS011;46521;50.160;20.802;2023-06-10T22:13:41;11.38;;;7.50;;
59314;SDS011;46521;50.160;20.802;2023-06-10T22:23:42;9.30;;;7.20;;
59314;SDS011;46521;50.160;20.802;2023-06-10T22:33:44;10.20;;;7.60;;
59314;SDS011;46521;50.160;20.802;2023-06-10T22:43:46;12.55;;;8.90;;
59314;SDS011;46521;50.160;20.802;2023-06-10T22:53:47;11.28;;;7.78;;
59314;SDS011;46521;50.160;20.802;2023-06-10T23:03:49;11.63;;;8.33;;
59314;SDS011;46521;50.160;20.802;2023-06-10T23:13:50;11.30;;;8.00;;
59314;SDS011;46521;50.160;20.802;2023-06-10T23:23:53;11.13;;;8.18;;
59314;SDS011;46521;50.160;20.802;2023-06-10T23:33:54;13.88;;;9.95;;
59314;SDS011;46521;50.160;20.802;2023-06-10T23:43:55;14.50;;;11.50;;
